Time;durP1;ratioP1;P1;durP2;ratioP2;P2;SDS_P1;SDS_P2;PMS_P1;PMS_P2;Temp;Humidity;BMP_temperature;BMP_pressure;BME280_temperature;BME280_humidity;BME280_pressure;Samples;Min_cycle;Max_cycle;Signal;HPM_P1;HPM_P2
2023/09/06 00:00:33;;;;;;;0.10;0.10;;;;;;;23.15;47.59;101060.59;7357658;19;20115;-58
2023/09/06 00:03:00;;;;;;;0.03;0.03;;;;;;;23.11;48.04;101051.09;7361586;19;20785;-59
2023/09/06 00:05:26;;;;;;;0.10;0.10;;;;;;;23.10;47.76;101052.06;7366671;19;20721;-59
2023/09/06 00:07:51;;;;;;;0.10;0.10;;;;;;;23.08;47.33;101056.66;7362864;19;20099;-59
2023/09/06 00:10:17;;;;;;;0.10;0.10;;;;;;;22.92;47.76;101036.41;7365637;19;20014;-60
2023/09/06 00:12:45;;;;;;;0.10;0.10;;;;;;;23.02;48.13;101060.59;7363570;19;20319;-59
2023/09/06 00:15:11;;;;;;;0.10;0.10;;;;;;;22.98;48.22;101057.28;7362818;19;20051;-60
2023/09/06 00:17:37;;;;;;;0.08;0.08;;;;;;;22.94;48.09;101055.78;7365176;19;20007;-58
2023/09/06 00:20:24;;;;;;;0.00;0.00;;;;;;;22.92;47.81;101063.03;7366394;19;20435;-59
2023/09/06 00:22:56;;;;;;;;;;;;;;;22.90;45.56;101054.28;7353605;19;20009;-60
2023/09/06 00:25:22;;;;;;;0.10;0.10;;;;;;;22.84;48.08;101053.84;7368292;19;19919;-60
2023/09/06 00:27:50;;;;;;;0.00;0.00;;;;;;;22.79;48.73;101051.47;7363851;19;20856;-61
2023/09/06 00:30:15;;;;;;;0.10;0.10;;;;;;;22.76;48.53;101051.72;7365737;19;20026;-59
2023/09/06 00:32:42;;;;;;;0.10;0.10;;;;;;;22.75;48.97;101058.81;7359446;19;20015;-58
2023/09/06 00:35:08;;;;;;;0.10;0.10;;;;;;;22.73;49.40;101058.06;7365681;19;20410;-59
2023/09/06 00:37:37;;;;;;;0.10;0.10;;;;;;;22.61;48.86;101037.63;7372930;19;20019;-59
2023/09/06 00:40:12;;;;;;;0.10;0.10;;;;;;;22.69;49.04;101045.06;7361591;19;20445;-59
2023/09/06 00:42:38;;;;;;;0.10;0.10;;;;;;;22.68;49.44;101049.56;7365544;19;20575;-60
2023/09/06 00:45:03;;;;;;;0.10;0.10;;;;;;;22.67;49.38;101052.31;7363581;19;20002;-58
2023/09/06 00:47:29;;;;;;;0.10;0.10;;;;;;;22.66;49.59;101045.31;7365501;19;20557;-60
2023/09/06 00:49:55;;;;;;;0.10;0.10;;;;;;;22.63;49.59;101049.00;7363102;19;20001;-59
2023/09/06 00:52:21;;;;;;;0.10;0.10;;;;;;;22.62;49.96;101049.97;7365861;19;20019;-59
2023/09/06 00:54:47;;;;;;;0.10;0.10;;;;;;;22.59;49.46;101044.84;7363586;19;20009;-58
2023/09/06 00:57:12;;;;;;;0.10;0.10;;;;;;;22.60;49.28;101056.34;7368316;19;20030;-59
2023/09/06 00:59:39;;;;;;;0.10;0.10;;;;;;;22.58;49.51;101047.63;7364848;19;20736;-59
2023/09/06 01:02:05;;;;;;;0.10;0.10;;;;;;;22.56;49.88;101047.72;7358109;19;20021;-59
2023/09/06 01:04:30;;;;;;;0.10;0.10;;;;;;;22.53;49.78;101053.25;7362042;19;20459;-59
2023/09/06 01:07:00;;;;;;;0.10;0.10;;;;;;;22.52;49.89;101051.56;7358450;19;20026;-59
2023/09/06 01:09:29;;;;;;;0.10;0.10;;;;;;;22.50;50.17;101056.94;7365639;19;20100;-60
2023/09/06 01:11:55;;;;;;;0.10;0.10;;;;;;;22.48;49.89;101047.38;7359823;19;20018;-60
2023/09/06 01:14:20;;;;;;;0.00;0.00;;;;;;;22.45;50.12;101039.59;7365517;19;20122;-59
2023/09/06 01:16:48;;;;;;;0.10;0.10;;;;;;;22.44;49.84;101044.06;7365453;19;20010;-58
2023/09/06 01:19:15;;;;;;;0.10;0.10;;;;;;;22.41;50.07;101038.97;7368317;19;20752;-59
2023/09/06 01:22:02;;;;;;;0.10;0.10;;;;;;;22.40;48.65;101039.91;7362745;19;20014;-60
2023/09/06 01:24:29;;;;;;;0.08;0.08;;;;;;;22.33;50.42;101037.75;7366925;19;20017;-58
2023/09/06 01:26:55;;;;;;;0.10;0.10;;;;;;;22.24;50.50;101028.56;7369139;19;20018;-60
2023/09/06 01:29:20;;;;;;;0.10;0.10;;;;;;;22.32;50.42;101036.91;7365849;19;20505;-58
2023/09/06 01:31:46;;;;;;;0.10;0.10;;;;;;;22.28;50.49;101035.41;7374787;19;20017;-58
2023/09/06 01:34:12;;;;;;;0.05;0.05;;;;;;;22.27;50.38;101039.03;7367762;19;20462;-60
2023/09/06 01:36:37;;;;;;;0.10;0.10;;;;;;;22.25;50.66;101040.91;7369609;19;20006;-60
2023/09/06 01:39:04;;;;;;;0.10;0.10;;;;;;;;;;7370385;19;19999;-58
2023/09/06 01:41:30;;;;;;;;;;;;;;;22.22;48.09;101041.13;7366256;19;20093;-58
2023/09/06 01:43:55;;;;;;;0.10;0.10;;;;;;;22.19;49.99;101046.66;7361840;19;20754;-57
2023/09/06 01:46:22;;;;;;;0.10;0.10;;;;;;;22.15;50.11;101045.13;7365716;19;20017;-58
2023/09/06 01:48:48;;;;;;;0.10;0.10;;;;;;;22.08;50.54;101028.69;7364995;19;20852;-60
2023/09/06 01:51:15;;;;;;;0.05;0.05;;;;;;;22.08;51.05;101033.16;7364050;19;20006;-60
2023/09/06 01:53:41;;;;;;;0.10;0.10;;;;;;;22.03;50.92;101030.81;7356048;19;20018;-60
2023/09/06 01:56:07;;;;;;;0.00;0.00;;;;;;;22.00;50.07;101037.19;7366421;19;20010;-59
2023/09/06 01:58:34;;;;;;;0.10;0.10;;;;;;;21.94;50.78;101032.25;7362112;19;20013;-58
2023/09/06 02:01:00;;;;;;;0.10;0.10;;;;;;;21.84;50.64;101019.66;7365169;19;20015;-58
2023/09/06 02:03:27;;;;;;;0.10;0.10;;;;;;;21.85;50.68;101024.91;7362673;19;20015;-58
2023/09/06 02:05:52;;;;;;;0.10;0.10;;;;;;;21.89;50.87;101029.03;7363343;19;20021;-59
2023/09/06 02:08:18;;;;;;;0.00;0.00;;;;;;;21.86;50.82;101034.56;7364907;19;20011;-59
2023/09/06 02:10:44;;;;;;;0.10;0.10;;;;;;;21.84;51.47;101041.78;7363149;19;20893;-60
2023/09/06 02:13:10;;;;;;;0.08;0.08;;;;;;;21.81;50.94;101041.16;7363127;19;20021;-60
2023/09/06 02:15:35;;;;;;;0.00;0.00;;;;;;;21.78;51.17;101036.88;7363085;19;20003;-60
2023/09/06 02:18:00;;;;;;;0.10;0.10;;;;;;;21.76;51.70;101041.44;7361805;19;20086;-56
2023/09/06 02:20:27;;;;;;;0.10;0.10;;;;;;;21.73;51.69;101049.59;7363485;19;20014;-60
2023/09/06 02:22:57;;;;;;;0.10;0.10;;;;;;;21.71;51.75;101046.19;7360101;19;20014;-59
2023/09/06 02:25:25;;;;;;;0.00;0.00;;;;;;;21.68;51.15;101052.53;7365565;19;20015;-59
2023/09/06 02:27:52;;;;;;;0.10;0.10;;;;;;;21.55;51.12;101037.50;7367362;19;20085;-58
2023/09/06 02:30:18;;;;;;;0.10;0.10;;;;;;;21.63;51.91;101059.09;7364986;19;20467;-57
2023/09/06 02:32:43;;;;;;;0.10;0.10;;;;;;;21.57;51.59;101043.56;7366486;19;20017;-59
2023/09/06 02:35:08;;;;;;;0.08;0.08;;;;;;;21.55;51.51;101042.81;7359199;19;20002;-57
2023/09/06 02:37:35;;;;;;;0.00;0.00;;;;;;;21.52;51.74;101045.66;7365589;19;20042;-59
2023/09/06 02:40:01;;;;;;;0.10;0.10;;;;;;;21.50;51.52;101048.41;7360966;19;20014;-59
2023/09/06 02:42:26;;;;;;;0.10;0.10;;;;;;;21.46;51.71;101036.25;7357924;19;20047;-58
2023/09/06 02:44:53;;;;;;;0.00;0.00;;;;;;;21.43;51.45;101042.59;7359391;19;20007;-59
2023/09/06 02:47:25;;;;;;;0.10;0.10;;;;;;;21.42;51.96;101046.22;7367390;19;20048;-59
2023/09/06 02:49:55;;;;;;;0.08;0.08;;;;;;;21.37;51.45;101039.50;7359968;19;20007;-59
2023/09/06 02:52:28;;;;;;;0.00;0.00;;;;;;;21.36;51.26;101043.09;7362363;19;20014;-58
2023/09/06 02:54:55;;;;;;;0.10;0.10;;;;;;;21.31;51.82;101048.69;7365505;19;20010;-59
2023/09/06 02:57:20;;;;;;;0.10;0.10;;;;;;;21.19;51.76;101030.84;7359321;19;20086;-59
2023/09/06 02:59:46;;;;;;;0.10;0.10;;;;;;;21.22;50.71;101049.22;7363724;19;20507;-59
2023/09/06 03:02:12;;;;;;;0.00;0.00;;;;;;;21.21;51.12;101047.53;7360284;19;20015;-59
2023/09/06 03:04:40;;;;;;;0.10;0.10;;;;;;;21.17;51.07;101046.00;7360983;19;20355;-59
2023/09/06 03:07:09;;;;;;;0.10;0.10;;;;;;;21.13;51.89;101057.75;7362935;19;20013;-58
2023/09/06 03:09:36;;;;;;;0.10;0.10;;;;;;;21.10;51.81;101045.53;7362462;19;20015;-60
2023/09/06 03:12:11;;;;;;;0.00;0.00;;;;;;;21.08;52.09;101051.88;7362369;19;20098;-58
2023/09/06 03:14:38;;;;;;;0.10;0.10;;;;;;;21.03;52.33;101054.78;7359831;19;20007;-59
2023/09/06 03:17:08;;;;;;;0.10;0.10;;;;;;;21.00;52.11;101055.00;7365074;19;20406;-60
2023/09/06 03:19:38;;;;;;;0.08;0.08;;;;;;;20.97;52.26;101071.09;7360468;19;19998;-58
2023/09/06 03:22:06;;;;;;;0.10;0.10;;;;;;;20.93;52.55;101067.81;7359749;19;20014;-57
2023/09/06 03:24:33;;;;;;;0.10;0.10;;;;;;;20.91;52.17;101067.03;7362014;19;20018;-57
2023/09/06 03:26:58;;;;;;;0.05;0.05;;;;;;;20.88;52.56;101061.91;7360095;19;20354;-60
2023/09/06 03:29:24;;;;;;;0.00;0.00;;;;;;;20.87;52.14;101070.81;7369840;19;20374;-60
2023/09/06 03:31:53;;;;;;;0.10;0.10;;;;;;;20.83;52.58;101079.88;7369693;19;20031;-57
2023/09/06 03:34:19;;;;;;;0.00;0.00;;;;;;;20.81;52.34;101081.78;7370232;19;20441;-60
2023/09/06 03:36:51;;;;;;;0.10;0.10;;;;;;;20.79;52.19;101089.00;7370108;19;20082;-59
2023/09/06 03:39:19;;;;;;;0.10;0.10;;;;;;;20.77;52.17;101095.34;7368532;19;20011;-58
2023/09/06 03:41:46;;;;;;;;;;;;;;;20.76;49.80;101099.78;7369858;19;20014;-58
2023/09/06 03:44:12;;;;;;;0.10;0.10;;;;;;;20.70;51.95;101100.16;7368454;19;19919;-59
2023/09/06 03:46:38;;;;;;;0.10;0.10;;;;;;;20.63;51.71;101093.47;7371969;19;20003;-59
2023/09/06 03:49:06;;;;;;;0.10;0.10;;;;;;;20.61;52.02;101095.38;7368447;19;20454;-60
2023/09/06 03:51:36;;;;;;;0.10;0.10;;;;;;;20.56;53.15;101100.09;7371280;19;20058;-59
2023/09/06 03:54:05;;;;;;;0.03;0.03;;;;;;;20.52;52.72;101102.06;7351165;19;20366;-59
2023/09/06 03:56:31;;;;;;;0.10;0.10;;;;;;;20.49;53.23;101096.09;7374392;19;19998;-58
2023/09/06 03:59:00;;;;;;;0.10;0.10;;;;;;;20.45;53.20;101098.88;7368570;19;20014;-57
2023/09/06 04:01:28;;;;;;;0.10;0.10;;;;;;;20.39;52.92;101085.13;7368177;19;20023;-60
2023/09/06 04:03:53;;;;;;;0.10;0.10;;;;;;;20.39;52.88;101101.91;7370812;19;20018;-57
2023/09/06 04:06:19;;;;;;;0.00;0.00;;;;;;;20.38;53.26;101099.34;7368703;19;20011;-60
2023/09/06 04:08:45;;;;;;;0.10;0.10;;;;;;;20.36;53.05;101107.38;7363576;19;20025;-61
2023/09/06 04:11:11;;;;;;;0.00;0.00;;;;;;;20.33;53.24;101107.56;7368568;19;20051;-58
2023/09/06 04:13:36;;;;;;;0.10;0.10;;;;;;;20.30;53.39;101102.41;7355654;19;20008;-57
2023/09/06 04:16:02;;;;;;;0.10;0.10;;;;;;;20.29;52.88;101095.41;7370991;19;20066;-59
2023/09/06 04:18:28;;;;;;;0.10;0.10;;;;;;;20.26;53.01;101095.56;7364675;19;20006;-60
2023/09/06 04:20:53;;;;;;;0.10;0.10;;;;;;;20.23;53.25;101095.75;7369579;19;20003;-60
2023/09/06 04:23:19;;;;;;;0.10;0.10;;;;;;;20.22;52.93;101094.03;7363327;19;20768;-58
2023/09/06 04:25:45;;;;;;;0.10;0.10;;;;;;;20.19;52.87;101100.38;7367222;19;20833;-57
2023/09/06 04:28:12;;;;;;;0.03;0.03;;;;;;;20.17;53.30;101093.44;7364130;19;20065;-59
2023/09/06 04:30:38;;;;;;;;;;;;;;;20.17;51.26;101096.97;7368957;19;20011;-59
2023/09/06 04:33:12;;;;;;;0.00;0.00;;;;;;;20.11;52.80;101088.47;7362806;19;19918;-59
2023/09/06 04:35:43;;;;;;;0.10;0.10;;;;;;;20.10;52.60;101089.44;7375165;19;20030;-60
2023/09/06 04:38:12;;;;;;;0.10;0.10;;;;;;;20.08;52.83;101101.94;7373839;19;20025;-58
2023/09/06 04:40:38;;;;;;;0.10;0.10;;;;;;;20.04;52.62;101103.03;7368461;19;20381;-60
2023/09/06 04:43:07;;;;;;;0.10;0.10;;;;;;;20.02;52.78;101099.59;7364868;19;20014;-60
2023/09/06 04:45:33;;;;;;;0.00;0.00;;;;;;;19.97;52.95;101099.84;7368932;19;20015;-59
2023/09/06 04:47:59;;;;;;;0.00;0.00;;;;;;;19.89;53.49;101102.94;7365264;19;20074;-59
2023/09/06 04:50:24;;;;;;;0.10;0.10;;;;;;;19.89;53.56;101100.28;7365677;19;20728;-60
2023/09/06 04:52:53;;;;;;;0.10;0.10;;;;;;;19.78;53.45;101081.47;7367404;19;20013;-58
2023/09/06 04:55:19;;;;;;;0.10;0.10;;;;;;;19.82;53.88;101101.59;7368948;19;20010;-59
2023/09/06 04:57:46;;;;;;;0.10;0.10;;;;;;;19.83;53.13;101102.44;7365477;19;20369;-59
2023/09/06 05:00:30;;;;;;;0.10;0.10;;;;;;;19.80;53.19;101098.13;7364451;19;20762;-57
2023/09/06 05:02:57;;;;;;;0.10;0.10;;;;;;;19.78;53.99;101102.69;7370745;19;20029;-57
2023/09/06 05:05:23;;;;;;;0.00;0.00;;;;;;;19.75;53.41;101108.13;7368532;19;20371;-58
2023/09/06 05:07:50;;;;;;;0.10;0.10;;;;;;;19.71;53.55;101109.22;7363014;19;20840;-60
2023/09/06 05:10:16;;;;;;;0.10;0.10;;;;;;;19.71;53.61;101109.22;7364473;19;20047;-60
2023/09/06 05:12:41;;;;;;;0.10;0.10;;;;;;;19.70;53.41;101094.28;7368071;19;20035;-60
2023/09/06 05:15:08;;;;;;;0.10;0.10;;;;;;;19.67;53.53;101100.63;7361257;19;20815;-59
2023/09/06 05:17:34;;;;;;;0.10;0.10;;;;;;;19.65;53.84;101109.56;7365802;19;20029;-58
2023/09/06 05:20:37;;;;;;;0.10;0.10;;;;;;;19.64;52.55;101107.88;7368050;19;20010;-60
2023/09/06 05:23:05;;;;;;;0.10;0.10;;;;;;;19.59;53.16;101105.47;7371363;19;20017;-59
2023/09/06 05:25:30;;;;;;;;;;;;;;;19.59;51.71;101112.53;7373032;19;20010;-60
2023/09/06 05:28:10;;;;;;;0.00;0.00;;;;;;;19.56;52.05;101107.38;7363595;19;20020;-59
2023/09/06 05:30:39;;;;;;;0.10;0.10;;;;;;;19.50;52.49;101090.03;7370615;19;21021;-60
2023/09/06 05:33:05;;;;;;;0.00;0.00;;;;;;;19.47;53.10;101094.66;7367386;19;20548;-59
2023/09/06 05:35:30;;;;;;;0.08;0.08;;;;;;;19.42;53.88;101093.09;7366370;19;20025;-60
2023/09/06 05:37:56;;;;;;;0.05;0.05;;;;;;;19.38;53.78;101086.25;7366914;19;20092;-59
2023/09/06 05:40:22;;;;;;;0.08;0.08;;;;;;;19.35;52.98;101094.34;7347093;19;20707;-59
2023/09/06 05:42:49;;;;;;;0.10;0.10;;;;;;;19.32;54.27;101094.53;7367040;19;20074;-59
2023/09/06 05:45:14;;;;;;;0.10;0.10;;;;;;;19.28;54.23;101095.63;7362714;19;20466;-58
2023/09/06 05:47:40;;;;;;;0.10;0.10;;;;;;;19.27;53.56;101098.34;7362861;19;20411;-60
2023/09/06 05:50:06;;;;;;;0.10;0.10;;;;;;;19.24;53.53;101093.22;7361639;19;20024;-55
2023/09/06 05:52:32;;;;;;;0.10;0.10;;;;;;;19.22;53.92;101101.25;7367805;19;20758;-60
2023/09/06 05:54:57;;;;;;;0.00;0.00;;;;;;;19.19;54.51;101106.69;7362651;19;20017;-59
2023/09/06 05:57:23;;;;;;;0.08;0.08;;;;;;;19.17;54.58;101104.13;7361559;19;20006;-60
2023/09/06 05:59:48;;;;;;;0.00;0.00;;;;;;;19.16;54.61;101101.56;7361224;19;20763;-59
2023/09/06 06:02:14;;;;;;;0.05;0.05;;;;;;;19.14;54.41;101103.41;7367204;19;20812;-59
2023/09/06 06:04:41;;;;;;;0.00;0.00;;;;;;;19.13;54.32;101113.16;7368130;19;20010;-59
2023/09/06 06:07:06;;;;;;;0.10;0.10;;;;;;;19.12;54.19;101105.31;7360556;19;19999;-59
2023/09/06 06:09:33;;;;;;;0.10;0.10;;;;;;;19.12;54.34;101110.59;7356793;19;20010;-59
2023/09/06 06:11:58;;;;;;;0.00;0.00;;;;;;;19.11;54.73;101114.16;7365187;19;21051;-59
2023/09/06 06:14:27;;;;;;;0.00;0.00;;;;;;;19.10;54.87;101117.75;7360487;19;20011;-59
2023/09/06 06:16:53;;;;;;;0.00;0.00;;;;;;;19.10;54.43;101123.03;7366269;19;20102;-60
2023/09/06 06:19:19;;;;;;;0.10;0.10;;;;;;;19.08;54.59;101130.22;7361195;19;20130;-59
2023/09/06 06:21:45;;;;;;;0.00;0.00;;;;;;;19.09;53.99;101126.63;7363557;19;20010;-57
2023/09/06 06:24:12;;;;;;;0.10;0.10;;;;;;;19.03;54.13;101113.72;7364083;19;20035;-57
2023/09/06 06:26:37;;;;;;;0.00;0.00;;;;;;;19.10;53.79;101131.84;7363912;19;20450;-59
2023/09/06 06:29:03;;;;;;;0.10;0.10;;;;;;;19.09;54.32;101131.91;7360611;19;20038;-60
2023/09/06 06:31:28;;;;;;;0.00;0.00;;;;;;;19.12;54.24;101132.63;7363597;19;20006;-60
2023/09/06 06:33:54;;;;;;;0.10;0.10;;;;;;;19.10;54.36;101123.88;7363615;19;20491;-59
2023/09/06 06:36:21;;;;;;;0.10;0.10;;;;;;;19.16;54.80;101133.34;7362468;19;20018;-59
2023/09/06 06:38:46;;;;;;;0.00;0.00;;;;;;;19.18;54.66;101121.72;7364598;19;20098;-59
2023/09/06 06:41:25;;;;;;;0.10;0.10;;;;;;;19.25;54.90;101127.53;7362542;19;20117;-59
2023/09/06 06:43:52;;;;;;;0.10;0.10;;;;;;;19.27;55.15;101125.69;7363469;19;20031;-59
2023/09/06 06:46:32;;;;;;;0.10;0.10;;;;;;;19.36;53.91;101140.22;7364485;19;20516;-58
2023/09/06 06:48:58;;;;;;;0.00;0.00;;;;;;;19.37;54.85;101140.16;7365475;19;20026;-59
2023/09/06 06:51:28;;;;;;;0.03;0.03;;;;;;;19.44;55.31;101148.63;7363573;19;20777;-59
2023/09/06 06:53:54;;;;;;;0.08;0.08;;;;;;;19.48;55.15;101149.34;7362188;19;20014;-59
2023/09/06 06:56:21;;;;;;;0.10;0.10;;;;;;;19.53;55.07;101152.59;7364089;19;20010;-60
2023/09/06 06:58:48;;;;;;;0.10;0.10;;;;;;;19.57;55.14;101148.84;7368126;19;20017;-60
2023/09/06 07:01:14;;;;;;;0.10;0.10;;;;;;;19.61;54.75;101150.41;7368441;19;20094;-58
2023/09/06 07:03:40;;;;;;;0.10;0.10;;;;;;;19.66;54.14;101154.53;7363761;19;20718;-60
2023/09/06 07:06:06;;;;;;;0.10;0.10;;;;;;;19.72;54.00;101153.38;7342153;19;20018;-59
2023/09/06 07:08:32;;;;;;;0.10;0.10;;;;;;;19.77;54.28;101151.31;7371701;19;20026;-59
2023/09/06 07:10:59;;;;;;;0.10;0.10;;;;;;;19.81;54.68;101160.81;7369342;19;20037;-60
2023/09/06 07:13:25;;;;;;;0.10;0.10;;;;;;;19.85;54.54;101162.34;7370549;19;20011;-60
2023/09/06 07:15:50;;;;;;;0.00;0.00;;;;;;;19.87;54.19;101167.56;7370576;19;20009;-60
2023/09/06 07:18:16;;;;;;;0.10;0.10;;;;;;;19.95;54.08;101176.81;7371203;19;20486;-60
2023/09/06 07:20:42;;;;;;;0.10;0.10;;;;;;;20.01;54.32;101177.44;7371286;19;20547;-57
2023/09/06 07:23:07;;;;;;;0.10;0.10;;;;;;;20.05;54.13;101187.78;7365274;19;20011;-59
2023/09/06 07:25:33;;;;;;;0.10;0.10;;;;;;;20.09;54.54;101189.34;7370395;19;20010;-58
2023/09/06 07:27:59;;;;;;;0.08;0.08;;;;;;;20.12;53.95;101183.88;7369874;19;20494;-57
2023/09/06 07:30:25;;;;;;;0.10;0.10;;;;;;;20.21;53.60;101193.94;7366744;19;20931;-60
2023/09/06 07:32:51;;;;;;;0.10;0.10;;;;;;;20.25;53.89;101197.28;7377108;19;20010;-58
2023/09/06 07:35:16;;;;;;;0.10;0.10;;;;;;;20.32;53.84;101200.47;7368368;19;20003;-60
2023/09/06 07:37:43;;;;;;;0.08;0.08;;;;;;;20.35;53.26;101189.69;7368864;19;20014;-60
2023/09/06 07:40:09;;;;;;;0.10;0.10;;;;;;;20.42;53.66;101197.19;7363632;19;20023;-61
2023/09/06 07:42:41;;;;;;;0.00;0.00;;;;;;;20.50;52.77;101193.31;7372026;19;20014;-58
2023/09/06 07:45:07;;;;;;;0.10;0.10;;;;;;;20.51;53.39;101195.88;7370915;19;20038;-60
2023/09/06 07:47:33;;;;;;;0.08;0.08;;;;;;;20.57;53.21;101199.97;7371616;19;20010;-60
2023/09/06 07:49:58;;;;;;;0.10;0.10;;;;;;;20.63;52.93;101210.25;7351797;19;20726;-60
2023/09/06 07:52:24;;;;;;;0.10;0.10;;;;;;;20.68;53.08;101202.88;7367163;19;20015;-60
2023/09/06 07:54:49;;;;;;;0.10;0.10;;;;;;;20.73;53.18;101207.00;7368267;19;20031;-60
2023/09/06 07:57:15;;;;;;;0.10;0.10;;;;;;;20.79;53.18;101205.78;7369383;19;20100;-61
2023/09/06 07:59:40;;;;;;;0.10;0.10;;;;;;;20.73;52.95;101190.19;7372493;19;20006;-59
2023/09/06 08:02:06;;;;;;;0.00;0.00;;;;;;;20.90;52.87;101214.00;7365876;19;20022;-59
2023/09/06 08:04:31;;;;;;;0.10;0.10;;;;;;;20.96;53.10;101224.25;7371207;19;20014;-58
2023/09/06 08:06:57;;;;;;;0.10;0.10;;;;;;;20.93;53.09;101212.94;7368901;19;20014;-60
2023/09/06 08:09:23;;;;;;;0.10;0.10;;;;;;;21.08;52.89;101227.13;7370804;19;20022;-60
2023/09/06 08:11:49;;;;;;;0.10;0.10;;;;;;;21.14;52.66;101238.28;7362517;19;20005;-61
2023/09/06 08:14:14;;;;;;;0.10;0.10;;;;;;;21.15;53.09;101223.19;7370002;19;20022;-60
2023/09/06 08:16:39;;;;;;;0.10;0.10;;;;;;;21.28;53.07;101239.25;7365896;19;20010;-60
2023/09/06 08:19:05;;;;;;;0.10;0.10;;;;;;;21.33;53.44;101238.06;7371620;19;20033;-58
2023/09/06 08:21:30;;;;;;;0.10;0.10;;;;;;;21.39;53.22;101243.03;7368161;19;20290;-59
2023/09/06 08:23:56;;;;;;;0.05;0.05;;;;;;;21.44;53.56;101235.66;7371823;19;20031;-60
2023/09/06 08:26:21;;;;;;;0.10;0.10;;;;;;;21.52;53.97;101236.97;7367191;19;20021;-60
2023/09/06 08:28:47;;;;;;;0.10;0.10;;;;;;;21.62;54.50;101249.63;7368479;19;20078;-59
2023/09/06 08:31:12;;;;;;;0.10;0.10;;;;;;;21.72;54.90;101255.25;7368473;19;20014;-60
2023/09/06 08:33:38;;;;;;;0.10;0.10;;;;;;;21.85;56.09;101256.22;7369735;19;20030;-59
2023/09/06 08:36:03;;;;;;;0.10;0.10;;;;;;;22.01;55.09;101253.47;7369022;19;20010;-60
2023/09/06 08:38:29;;;;;;;0.10;0.10;;;;;;;22.18;54.89;101258.63;7371224;19;20583;-61
2023/09/06 08:40:54;;;;;;;0.03;0.03;;;;;;;22.38;56.12;101262.69;7369611;19;20021;-60
2023/09/06 08:43:20;;;;;;;0.10;0.10;;;;;;;22.61;56.17;101265.69;7367571;19;20035;-57
2023/09/06 08:45:48;;;;;;;0.10;0.10;;;;;;;22.87;57.01;101272.00;7369479;19;20065;-61
2023/09/06 08:48:15;;;;;;;0.10;0.10;;;;;;;23.07;56.09;101271.59;7374780;19;20544;-60
2023/09/06 08:50:42;;;;;;;0.10;0.10;;;;;;;23.24;56.21;101270.47;7368061;19;20399;-59
2023/09/06 08:53:10;;;;;;;0.10;0.10;;;;;;;23.48;55.63;101263.47;7370051;19;20014;-61
2023/09/06 08:55:36;;;;;;;0.10;0.10;;;;;;;23.78;56.32;101281.03;7365220;19;20576;-61
2023/09/06 08:58:03;;;;;;;0.13;0.13;;;;;;;24.05;56.23;101283.59;7373575;19;20074;-60
2023/09/06 09:00:30;;;;;;;0.10;0.10;;;;;;;24.36;55.40;101271.63;7366602;19;20010;-59
2023/09/06 09:02:57;;;;;;;0.00;0.00;;;;;;;24.68;55.45;101281.81;7364581;19;20027;-60
2023/09/06 09:05:22;;;;;;;;;;;;;;;25.05;53.02;101286.16;7375792;19;20007;-60
2023/09/06 09:07:56;;;;;;;0.00;0.00;;;;;;;25.22;54.59;101287.59;7367543;19;19933;-60
2023/09/06 09:10:25;;;;;;;0.10;0.10;;;;;;;25.47;53.50;101281.25;7368454;19;20011;-61
2023/09/06 09:12:51;;;;;;;0.10;0.10;;;;;;;25.66;53.58;101269.16;7368313;19;20014;-61
2023/09/06 09:15:20;;;;;;;0.10;0.10;;;;;;;26.03;52.95;101278.72;7369522;19;20023;-59
2023/09/06 09:17:49;;;;;;;0.10;0.10;;;;;;;26.24;52.68;101278.00;7365676;19;20085;-61
2023/09/06 09:20:14;;;;;;;0.10;0.10;;;;;;;26.52;52.04;101296.28;7366853;19;20006;-59
2023/09/06 09:22:40;;;;;;;0.10;0.10;;;;;;;26.75;51.35;101288.19;7364482;19;20007;-60
2023/09/06 09:25:16;;;;;;;0.10;0.10;;;;;;;27.01;51.14;101296.78;7366436;19;20027;-60
2023/09/06 09:27:44;;;;;;;0.10;0.10;;;;;;;27.24;51.18;101284.19;7365051;19;20250;-61
2023/09/06 09:30:12;;;;;;;0.10;0.10;;;;;;;27.47;50.49;101284.91;7368486;19;20018;-57
2023/09/06 09:32:39;;;;;;;0.10;0.10;;;;;;;27.70;50.29;101288.34;7366693;19;20021;-60
2023/09/06 09:35:10;;;;;;;0.10;0.10;;;;;;;28.03;49.10;101284.59;7366030;19;20011;-60
2023/09/06 09:37:36;;;;;;;0.10;0.10;;;;;;;28.19;48.44;101284.97;7368445;19;20019;-60
2023/09/06 09:40:32;;;;;;;0.10;0.10;;;;;;;28.53;49.10;101287.34;7368552;19;20013;-60
2023/09/06 09:42:59;;;;;;;0.10;0.10;;;;;;;28.62;48.24;101291.91;7367448;19;20017;-58
2023/09/06 09:45:28;;;;;;;0.10;0.10;;;;;;;28.79;47.60;101285.00;7362914;19;20047;-60
2023/09/06 09:47:55;;;;;;;0.05;0.05;;;;;;;29.01;46.93;101290.19;7366100;19;20033;-60
2023/09/06 09:50:29;;;;;;;0.10;0.10;;;;;;;29.29;47.09;101290.31;7363796;19;20050;-60
2023/09/06 09:52:56;;;;;;;0.10;0.10;;;;;;;29.43;45.90;101295.28;7364678;19;20006;-58
2023/09/06 09:55:27;;;;;;;0.00;0.00;;;;;;;29.69;46.28;101288.34;7365900;19;20014;-59
2023/09/06 09:57:54;;;;;;;0.10;0.10;;;;;;;29.86;45.53;101284.06;7371363;19;20017;-58
2023/09/06 10:00:27;;;;;;;;;;;;;;;30.26;46.43;101295.56;7365187;19;20637;-60
2023/09/06 10:02:56;;;;;;;0.10;0.10;;;;;;;30.35;45.67;101297.38;7365957;19;19919;-60
2023/09/06 10:05:23;;;;;;;0.10;0.10;;;;;;;30.50;44.54;101295.88;7362388;19;20136;-59
2023/09/06 10:07:48;;;;;;;;;;;;;;;30.94;45.51;101296.06;7366626;19;20844;-60
2023/09/06 10:10:14;;;;;;;0.10;0.10;;;;;;;30.89;43.26;101298.38;7364783;19;19925;-59
2023/09/06 10:12:49;;;;;;;0.03;0.03;;;;;;;31.07;43.76;101292.97;7367742;19;20025;-60
2023/09/06 10:15:14;;;;;;;0.00;0.00;;;;;;;31.05;43.94;101297.69;7365619;19;20014;-57
2023/09/06 10:17:44;;;;;;;0.00;0.00;;;;;;;31.22;43.52;101294.97;7366565;19;20006;-61
2023/09/06 10:20:12;;;;;;;0.05;0.05;;;;;;;31.37;43.18;101291.75;7367071;19;20772;-61
2023/09/06 10:22:47;;;;;;;0.10;0.10;;;;;;;31.57;43.15;101284.34;7364060;19;20016;-60
2023/09/06 10:25:15;;;;;;;0.10;0.10;;;;;;;31.67;41.23;101304.81;7363808;19;20013;-60
2023/09/06 10:27:54;;;;;;;0.10;0.10;;;;;;;31.84;41.39;101300.44;7366100;19;20016;-60
2023/09/06 10:30:28;;;;;;;0.00;0.00;;;;;;;31.97;41.92;101297.28;7364172;19;20016;-60
2023/09/06 10:32:54;;;;;;;0.00;0.00;;;;;;;31.99;40.59;101296.16;7367732;19;20490;-59
2023/09/06 10:35:30;;;;;;;0.10;0.10;;;;;;;32.18;40.91;101291.50;7366961;19;20025;-60
2023/09/06 10:38:05;;;;;;;0.08;0.08;;;;;;;32.18;40.20;101299.59;7367902;19;20077;-60
2023/09/06 10:40:51;;;;;;;0.08;0.08;;;;;;;32.15;40.24;101298.09;7375591;19;20127;-59
2023/09/06 10:43:41;;;;;;;;;;;;;;;32.10;40.95;101294.16;7365671;19;20022;-61
2023/09/06 10:46:10;;;;;;;0.05;0.05;;;;;;;31.97;40.40;101289.19;7365850;19;19926;-60
2023/09/06 10:48:36;;;;;;;0.10;0.10;;;;;;;31.90;40.84;101290.84;7362779;19;20043;-61
2023/09/06 10:51:06;;;;;;;0.10;0.10;;;;;;;32.12;40.39;101282.19;7367154;19;20018;-60
2023/09/06 10:53:33;;;;;;;0.00;0.00;;;;;;;32.18;41.12;101265.31;7366677;19;20008;-60
2023/09/06 10:56:00;;;;;;;0.08;0.08;;;;;;;32.53;40.70;101295.91;7364908;19;20040;-59
2023/09/06 10:58:28;;;;;;;0.10;0.10;;;;;;;32.92;40.05;101281.84;7366932;19;20011;-59
2023/09/06 11:01:18;;;;;;;0.10;0.10;;;;;;;33.36;39.70;101284.25;7366159;19;20022;-61
2023/09/06 11:03:48;;;;;;;0.03;0.03;;;;;;;33.55;37.62;101286.63;7372724;19;20050;-63
2023/09/06 11:06:13;;;;;;;0.10;0.10;;;;;;;33.62;36.47;101284.94;7373509;19;20030;-60
2023/09/06 11:08:40;;;;;;;0.10;0.10;;;;;;;33.68;37.40;101276.13;7371815;19;20006;-61
2023/09/06 11:11:09;;;;;;;0.03;0.03;;;;;;;33.78;37.68;101274.06;7362887;19;20027;-59
2023/09/06 11:13:36;;;;;;;0.00;0.00;;;;;;;33.92;38.01;101275.22;7364053;19;20086;-59
2023/09/06 11:16:05;;;;;;;0.10;0.10;;;;;;;34.27;37.95;101270.41;7366574;19;20006;-58
2023/09/06 11:18:32;;;;;;;0.10;0.10;;;;;;;34.46;37.04;101271.84;7365851;19;20050;-61
2023/09/06 11:20:59;;;;;;;0.10;0.10;;;;;;;34.76;36.10;101271.00;7364720;19;20015;-59
2023/09/06 11:23:26;;;;;;;0.10;0.10;;;;;;;35.05;35.63;101269.47;7361977;19;20018;-59
2023/09/06 11:25:58;;;;;;;0.10;0.10;;;;;;;35.41;35.99;101261.53;7364629;19;20600;-61
2023/09/06 11:28:28;;;;;;;0.10;0.10;;;;;;;35.62;34.91;101266.28;7365453;19;20802;-61